createdAt,value
2023-02-22T00:00:46.555Z,1.47
2023-02-22T00:06:00.221Z,1.45
2023-02-22T00:11:09.074Z,1.44
2023-02-22T00:16:16.791Z,1.43
2023-02-22T00:21:21.197Z,1.43
2023-02-22T00:26:24.608Z,1.44
2023-02-22T00:31:27.677Z,1.46
2023-02-22T00:36:30.814Z,1.49
2023-02-22T00:41:34.306Z,1.52
2023-02-22T00:46:37.745Z,1.55
2023-02-22T00:51:40.851Z,1.57
2023-02-22T00:56:43.954Z,1.54
2023-02-22T01:01:47.161Z,1.52
2023-02-22T01:06:50.471Z,1.50
2023-02-22T01:11:57.263Z,1.46
2023-02-22T01:17:00.315Z,1.44
2023-02-22T01:22:05.728Z,1.43
2023-02-22T01:27:09.957Z,1.41
2023-02-22T01:32:13.128Z,1.37
2023-02-22T01:37:16.277Z,1.34
2023-02-22T01:42:19.271Z,1.31
2023-02-22T01:47:22.479Z,1.28
2023-02-22T01:52:25.688Z,1.23
2023-02-22T01:57:31.556Z,1.19
2023-02-22T02:02:34.661Z,1.14
2023-02-22T02:07:39.711Z,1.08
2023-02-22T02:12:46.603Z,1.04
2023-02-22T02:17:52.127Z,0.98
2023-02-22T02:22:55.173Z,0.94
2023-02-22T02:28:11.077Z,0.91
2023-02-22T02:33:32.620Z,0.88
2023-02-22T02:38:48.958Z,0.83
2023-02-22T02:44:33.919Z,0.79
2023-02-22T02:49:50.031Z,0.75
2023-02-22T02:54:55.459Z,0.74
2023-02-22T02:59:58.495Z,0.70
2023-02-22T03:05:08.095Z,0.67
2023-02-22T03:10:33.176Z,0.64
2023-02-22T03:15:51.845Z,0.63
2023-02-22T03:21:10.521Z,0.63
2023-02-22T03:26:19.756Z,0.61
2023-02-22T03:31:28.032Z,0.59
2023-02-22T03:36:35.267Z,0.57
2023-02-22T03:41:40.742Z,0.55
2023-02-22T03:46:47.025Z,0.53
2023-02-22T03:51:50.448Z,0.50
2023-02-22T03:56:57.356Z,0.47
2023-02-22T04:02:00.351Z,0.45
2023-02-22T04:07:03.345Z,0.43
2023-02-22T04:12:06.969Z,0.39
2023-02-22T04:17:10.478Z,0.36
2023-02-22T04:22:14.097Z,0.35
2023-02-22T04:27:17.101Z,0.32
2023-02-22T04:32:20.314Z,0.31
2023-02-22T04:37:23.516Z,0.29
2023-02-22T04:42:26.683Z,0.28
2023-02-22T04:47:29.930Z,0.27
2023-02-22T04:52:33.040Z,0.27
2023-02-22T04:57:36.042Z,0.27
2023-02-22T05:02:42.765Z,0.27
2023-02-22T05:07:46.039Z,0.28
2023-02-22T05:12:49.265Z,0.29
2023-02-22T05:17:53.070Z,0.29
2023-02-22T05:22:58.021Z,0.30
2023-02-22T05:28:04.281Z,0.30
2023-02-22T05:33:08.528Z,0.32
2023-02-22T05:38:15.204Z,0.32
2023-02-22T05:43:18.637Z,0.32
2023-02-22T05:48:22.703Z,0.32
2023-02-22T05:53:26.586Z,0.33
2023-02-22T05:58:29.796Z,0.33
2023-02-22T06:03:32.809Z,0.35
2023-02-22T06:08:35.999Z,0.38
2023-02-22T06:13:40.022Z,0.40
2023-02-22T06:18:43.132Z,0.42
2023-02-22T06:23:46.648Z,0.45
2023-02-22T06:28:49.752Z,0.48
2023-02-22T06:33:52.753Z,0.53
2023-02-22T06:38:59.235Z,0.57
2023-02-22T06:44:02.241Z,0.60
2023-02-22T06:49:06.577Z,0.66
2023-02-22T06:54:10.579Z,0.71
2023-02-22T06:59:13.808Z,0.78
2023-02-22T07:04:17.633Z,0.81
2023-02-22T07:09:21.356Z,0.82
2023-02-22T07:14:24.868Z,0.85
2023-02-22T07:19:28.792Z,0.90
2023-02-22T07:24:32.107Z,0.99
2023-02-22T07:29:36.237Z,1.09
2023-02-22T07:34:39.188Z,1.17
2023-02-22T07:39:43.912Z,1.25
2023-02-22T07:44:47.193Z,1.32
2023-02-22T07:49:50.702Z,1.40
2023-02-22T07:54:54.015Z,1.46
2023-02-22T07:59:57.531Z,1.50
2023-02-22T08:05:00.948Z,1.53
2023-02-22T08:10:07.807Z,1.58
2023-02-22T08:15:18.323Z,1.65
2023-02-22T08:20:22.138Z,1.72
2023-02-22T08:25:27.472Z,1.78
2023-02-22T08:30:32.586Z,1.84
2023-02-22T08:35:35.660Z,1.86
2023-02-22T08:40:39.480Z,1.91
2023-02-22T08:45:43.428Z,1.98
2023-02-22T08:50:47.223Z,2.03
2023-02-22T08:55:50.369Z,2.12
2023-02-22T09:00:54.348Z,2.21
2023-02-22T09:05:59.724Z,2.31
2023-02-22T09:11:03.016Z,2.45
2023-02-22T09:16:07.250Z,2.61
2023-02-22T09:21:10.454Z,2.74
2023-02-22T09:26:16.324Z,2.85
2023-02-22T09:31:19.722Z,2.99
2023-02-22T09:36:25.196Z,3.11
2023-02-22T09:41:38.649Z,3.23
2023-02-22T09:46:46.143Z,3.30
2023-02-22T09:52:14.551Z,3.33
2023-02-22T09:57:29.333Z,3.41
2023-02-22T10:02:41.761Z,3.51
2023-02-22T10:07:55.408Z,3.52
2023-02-22T10:13:21.348Z,3.53
2023-02-22T10:18:55.379Z,3.55
2023-02-22T10:24:07.700Z,3.46
2023-02-22T10:29:35.390Z,3.33
2023-02-22T10:34:44.137Z,3.33
2023-02-22T10:39:50.239Z,3.21
2023-02-22T10:44:53.820Z,3.07
2023-02-22T10:50:00.920Z,2.95
2023-02-22T10:55:15.258Z,2.86
2023-02-22T11:00:40.025Z,2.81
2023-02-22T11:05:43.615Z,2.90
2023-02-22T11:10:48.470Z,3.02
2023-02-22T11:15:53.104Z,3.18
2023-02-22T11:21:07.958Z,3.25
2023-02-22T11:26:20.546Z,3.26
2023-02-22T11:31:27.452Z,3.23
2023-02-22T11:36:38.202Z,3.20
2023-02-22T11:41:42.931Z,3.14
2023-02-22T11:46:46.242Z,3.16
2023-02-22T11:51:54.706Z,3.21
2023-02-22T11:57:22.424Z,3.26
2023-02-22T12:02:56.399Z,3.24
2023-02-22T12:08:19.765Z,3.23
2023-02-22T12:13:24.204Z,3.15
2023-02-22T12:19:09.286Z,3.16
2023-02-22T12:24:16.691Z,3.18
2023-02-22T12:29:52.872Z,3.18
2023-02-22T12:35:07.042Z,3.18
2023-02-22T12:40:36.327Z,3.22
2023-02-22T12:45:52.376Z,3.25
2023-02-22T12:51:02.598Z,3.27
2023-02-22T12:56:26.029Z,3.44
2023-02-22T13:01:40.743Z,3.72
2023-02-22T13:06:56.300Z,3.84
2023-02-22T13:12:27.567Z,3.92
2023-02-22T13:18:01.795Z,4.15
2023-02-22T13:23:26.821Z,4.35
2023-02-22T13:28:55.323Z,4.44
2023-02-22T13:34:20.033Z,4.47
2023-02-22T13:39:43.714Z,4.42
2023-02-22T13:45:09.356Z,4.31
2023-02-22T13:50:49.419Z,4.21
2023-02-22T13:55:57.476Z,4.03
2023-02-22T14:01:02.440Z,3.84
2023-02-22T14:06:08.062Z,3.70
2023-02-22T14:11:15.367Z,3.57
2023-02-22T14:16:22.490Z,3.36
2023-02-22T14:21:26.490Z,3.20
2023-02-22T14:26:37.625Z,3.06
2023-02-22T14:31:41.066Z,2.93
2023-02-22T14:36:55.008Z,2.87
2023-02-22T14:42:01.725Z,2.83
2023-02-22T14:47:10.071Z,2.82
2023-02-22T14:52:27.719Z,2.81
2023-02-22T14:57:54.069Z,2.80
2023-02-22T15:03:02.117Z,2.77
2023-02-22T15:08:09.638Z,2.75
2023-02-22T15:13:19.158Z,2.73
2023-02-22T15:18:30.358Z,2.66
2023-02-22T15:23:49.500Z,2.58
2023-02-22T15:29:00.136Z,2.47
2023-02-22T15:34:22.684Z,2.39
2023-02-22T15:39:27.368Z,2.32
2023-02-22T15:44:39.745Z,2.23
2023-02-22T15:49:44.438Z,2.15
2023-02-22T15:54:50.872Z,2.10
2023-02-22T15:59:57.361Z,2.03
2023-02-22T16:05:13.328Z,1.97
2023-02-22T16:10:34.336Z,1.89
2023-02-22T16:15:39.137Z,1.84
2023-02-22T16:20:42.619Z,1.79
2023-02-22T16:25:48.113Z,1.76
2023-02-22T16:30:58.774Z,1.72
2023-02-22T16:36:09.988Z,1.68
2023-02-22T16:41:17.198Z,1.64
2023-02-22T16:46:23.105Z,1.59
2023-02-22T16:51:29.913Z,1.55
2023-02-22T16:56:34.084Z,1.52
2023-02-22T17:01:37.572Z,1.49
2023-02-22T17:06:41.219Z,1.47
2023-02-22T17:11:45.040Z,1.45
2023-02-22T17:16:49.431Z,1.44
2023-02-22T17:21:54.396Z,1.42
2023-02-22T17:26:59.832Z,1.40
2023-02-22T17:32:03.823Z,1.38
2023-02-22T17:37:07.534Z,1.36
2023-02-22T17:42:10.743Z,1.34
2023-02-22T17:47:13.949Z,1.31
2023-02-22T17:52:17.782Z,1.28
2023-02-22T17:57:22.007Z,1.24
2023-02-22T18:02:25.565Z,1.20
2023-02-22T18:07:33.127Z,1.16
2023-02-22T18:12:37.358Z,1.13
2023-02-22T18:17:40.772Z,1.10
2023-02-22T18:22:44.707Z,1.07
2023-02-22T18:27:49.139Z,1.04
2023-02-22T18:32:52.550Z,1.02
2023-02-22T18:37:56.168Z,1.00
2023-02-22T18:43:00.191Z,0.96
2023-02-22T18:48:03.915Z,0.94
2023-02-22T18:53:07.327Z,0.93
2023-02-22T18:58:12.130Z,0.91
2023-02-22T19:03:16.216Z,0.90
2023-02-22T19:08:19.830Z,0.87
2023-02-22T19:13:24.067Z,0.85
2023-02-22T19:18:27.261Z,0.82
2023-02-22T19:23:35.037Z,0.79
2023-02-22T19:28:39.720Z,0.78
2023-02-22T19:33:43.744Z,0.75
2023-02-22T19:38:47.546Z,0.73
2023-02-22T19:43:53.699Z,0.69
2023-02-22T19:48:57.786Z,0.65
2023-02-22T19:54:04.409Z,0.62
2023-02-22T19:59:13.671Z,0.59
2023-02-22T20:04:21.787Z,0.56
2023-02-22T20:09:34.374Z,0.51
2023-02-22T20:14:39.890Z,0.48
2023-02-22T20:19:45.166Z,0.44
2023-02-22T20:24:50.237Z,0.40
2023-02-22T20:29:53.937Z,0.38
2023-02-22T20:34:57.880Z,0.34
2023-02-22T20:40:04.172Z,0.31
2023-02-22T20:45:12.690Z,0.29
2023-02-22T20:50:17.864Z,0.26
2023-02-22T20:55:22.282Z,0.23
2023-02-22T21:00:26.106Z,0.18
2023-02-22T21:05:30.387Z,0.13
2023-02-22T21:10:42.845Z,0.05
2023-02-22T21:15:47.715Z,-0.02
2023-02-22T21:20:52.253Z,-0.08
2023-02-22T21:25:55.702Z,-0.17
2023-02-22T21:31:12.565Z,-0.23
2023-02-22T21:36:16.917Z,-0.31
2023-02-22T21:41:22.092Z,-0.38
2023-02-22T21:46:27.883Z,-0.44
2023-02-22T21:51:32.990Z,-0.51
2023-02-22T21:56:40.156Z,-0.56
2023-02-22T22:01:47.541Z,-0.60
2023-02-22T22:06:53.077Z,-0.61
2023-02-22T22:11:59.031Z,-0.62
2023-02-22T22:17:05.953Z,-0.63
2023-02-22T22:22:09.157Z,-0.65
2023-02-22T22:27:13.397Z,-0.70
2023-02-22T22:32:16.709Z,-0.73
2023-02-22T22:37:22.774Z,-0.74
2023-02-22T22:42:26.175Z,-0.76
2023-02-22T22:47:29.795Z,-0.77
2023-02-22T22:52:35.649Z,-0.80
2023-02-22T22:57:40.220Z,-0.82
2023-02-22T23:02:43.589Z,-0.82
2023-02-22T23:07:46.721Z,-0.79
2023-02-22T23:12:49.825Z,-0.78
2023-02-22T23:17:59.276Z,-0.80
2023-02-22T23:23:03.002Z,-0.81
2023-02-22T23:28:14.881Z,-0.85
2023-02-22T23:33:18.020Z,-0.90
2023-02-22T23:38:21.126Z,-0.96
2023-02-22T23:43:25.782Z,-1.01
2023-02-22T23:48:30.315Z,-1.07
2023-02-22T23:53:33.524Z,-1.15
2023-02-22T23:58:38.671Z,-1.22
